Airfield :







YOU CAN JOIN US ON...

 
LOGIN :

Register | Disclaimer

   EN    FR    IT 

 









Legend :    VFR   Marginal VFR   IFR   Intensive IFR   Very Intensive IFR
Visi :
Ceiling :
>= 8 km
>= 3000ft
5 to 8 km
1000 to 3000 ft
1500m to 5 km
500 to 1000 ft
800 to 1500m
200 to 500 ft
< 800m
< 200 ft
Symbols :   Thunderstorms  Fog  Heavy snow  Heavy precipitations  Wind > 20 kt






- Airport Elevation : 1166 ft


KMPV - Edward F Knapp State

CURRENT METAR :
  • 101551Z AUTO 19009G15KT 10SM CLR 30/21 A3004 RMK AO2 SLP165 T03000211

EXPIRED METARs :
  • 101451Z AUTO 20007KT 10SM FEW026 28/22 A3006 RMK AO2 SLP171 T02830217 57010
  • 101351Z AUTO 17005KT 10SM CLR 27/22 A3006 RMK AO2 SLP173 T02720222

TAF KMPV
Valid from the 10 at 13:00 until the 11 at 12:00 UTC


101300Z 1013/1112 VRB03KT P6SM SKC
FM101500 16007KT P6SM SCT200
FM110300 13008KT P6SM VCSH OVC045
FM110500 13007KT 5SM -RA BR OVC027
TEMPO 1106/1110 2SM SHRA BR OVC010
KZBW FIR / North America



MET'MAP, your aeronautical weather chart ! - Copyright ORBIFLY December 2007 - Disclaimer

ORBIFLY MET'MAP TEAM :

Programming & Development : Alexandra Zaïnal
Concept & original design : Baudouin d'Aumeries
Assistance for programming : Marc-Olivier Méhu
Technical & hardware support : Manuel Goepfert

Contact : metmap@orbifly.com




SOURCES & CREDITS :

   NOAA